Time;durP1;ratioP1;P1;durP2;ratioP2;P2;SDS_P1;SDS_P2;PMS_P1;PMS_P2;Temp;Humidity;BMP_temperature;BMP_pressure;BME280_temperature;BME280_humidity;BME280_pressure;Samples;Min_cycle;Max_cycle;Signal;HPM_P1;HPM_P2
2022/03/09 00:00:07;;;;;;;30.33;22.97;;;;;;;0.21;66.33;97073.44;5115436;28;20193;-53
2022/03/09 00:02:39;;;;;;;28.23;22.93;;;;;;;0.24;66.47;97078.50;5115023;28;20225;-54
2022/03/09 00:05:06;;;;;;;29.13;21.43;;;;;;;0.22;66.45;97072.50;5113397;28;20209;-51
2022/03/09 00:07:33;;;;;;;29.97;23.23;;;;;;;0.14;66.32;97072.03;5113332;28;20506;-52
2022/03/09 00:09:59;;;;;;;35.60;26.43;;;;;;;0.11;66.76;97075.59;5118031;28;20217;-54
2022/03/09 00:12:26;;;;;;;33.87;23.40;;;;;;;0.06;66.45;97074.13;5133691;28;20207;-54
2022/03/09 00:14:52;;;;;;;31.40;22.30;;;;;;;-0.02;67.26;97080.53;5135794;28;20197;-54
2022/03/09 00:17:19;;;;;;;29.47;23.03;;;;;;;0.02;67.17;97088.19;5126410;27;20234;-52
2022/03/09 00:19:47;;;;;;;30.33;22.93;;;;;;;-0.05;67.36;97085.88;5114613;28;20206;-53
2022/03/09 00:22:13;;;;;;;28.50;23.47;;;;;;;-0.09;67.24;97094.69;5114612;28;20209;-53
2022/03/09 00:24:40;;;;;;;31.27;23.07;;;;;;;-0.16;67.21;97103.69;5113728;28;20626;-53
2022/03/09 00:27:06;;;;;;;30.03;23.20;;;;;;;-0.15;67.11;97105.38;5113467;28;20665;-54
2022/03/09 00:29:33;;;;;;;30.37;22.27;;;;;;;-0.19;67.14;97116.81;5113878;28;20219;-53
2022/03/09 00:31:59;;;;;;;26.77;22.13;;;;;;;-0.18;67.12;97113.28;5117061;28;20538;-52
2022/03/09 00:34:26;;;;;;;30.73;23.33;;;;;;;-0.26;67.18;97110.19;5117068;28;20209;-52
2022/03/09 00:36:54;;;;;;;32.17;22.73;;;;;;;-0.24;67.35;97108.34;5102529;28;20225;-52
2022/03/09 00:39:20;;;;;;;32.87;24.53;;;;;;;-0.25;67.90;97117.06;5116170;28;20214;-53
2022/03/09 00:41:47;;;;;;;30.33;23.63;;;;;;;-0.19;67.36;97123.75;5117142;28;20221;-52
2022/03/09 00:44:13;;;;;;;32.90;23.03;;;;;;;-0.13;67.81;97129.53;5108955;28;20639;-54
2022/03/09 00:46:40;;;;;;;31.03;23.67;;;;;;;-0.21;68.14;97126.41;5112266;28;20228;-52
2022/03/09 00:49:06;;;;;;;32.20;23.57;;;;;;;-0.22;69.01;97127.34;5117942;28;20216;-54
2022/03/09 00:51:33;;;;;;;30.57;24.00;;;;;;;-0.19;68.51;97132.41;5117504;28;20645;-53
2022/03/09 00:54:01;;;;;;;31.83;23.60;;;;;;;-0.25;69.03;97122.25;5119620;28;20209;-52
2022/03/09 00:56:27;;;;;;;31.73;24.13;;;;;;;-0.23;68.33;97128.25;5118479;28;20231;-53
2022/03/09 00:58:54;;;;;;;30.20;24.30;;;;;;;-0.28;68.49;97121.53;5118088;28;20208;-52
2022/03/09 01:01:20;;;;;;;29.13;23.33;;;;;;;-0.24;68.57;97123.94;5117939;28;20256;-53
2022/03/09 01:03:47;;;;;;;32.60;24.33;;;;;;;-0.31;68.61;97117.31;5118350;28;20205;-53
2022/03/09 01:06:15;;;;;;;32.03;24.30;;;;;;;-0.32;68.94;97112.22;5119373;28;20206;-52
2022/03/09 01:08:42;;;;;;;31.87;23.47;;;;;;;-0.30;68.85;97116.44;5117372;28;20231;-53
2022/03/09 01:11:10;;;;;;;31.23;23.87;;;;;;;-0.28;69.58;97116.34;5119402;28;20209;-53
2022/03/09 01:13:37;;;;;;;34.23;23.77;;;;;;;-0.34;70.38;97112.25;5112912;28;20265;-53
2022/03/09 01:16:04;;;;;;;32.20;23.50;;;;;;;-0.35;69.92;97110.56;5119082;28;20212;-53
2022/03/09 01:18:30;;;;;;;31.87;23.83;;;;;;;-0.30;70.68;97108.63;5128528;28;20229;-53
2022/03/09 01:20:58;;;;;;;35.17;24.53;;;;;;;-0.27;70.01;97116.28;5129224;28;20205;-53
2022/03/09 01:23:24;;;;;;;33.70;24.27;;;;;;;-0.34;70.89;97117.47;5135748;28;20202;-53
2022/03/09 01:25:51;;;;;;;30.93;23.17;;;;;;;-0.35;70.11;97120.97;5127388;28;20209;-53
2022/03/09 01:28:20;;;;;;;32.53;23.97;;;;;;;-0.28;70.02;97124.13;5117343;28;20215;-54
2022/03/09 01:30:46;;;;;;;33.23;25.13;;;;;;;-0.31;70.07;97126.88;5117642;28;20204;-53
2022/03/09 01:33:15;;;;;;;31.63;22.97;;;;;;;-0.30;70.83;97129.41;5117773;28;20223;-52
2022/03/09 01:35:41;;;;;;;31.70;24.30;;;;;;;-0.25;70.63;97127.44;5119747;28;20650;-53
2022/03/09 01:38:08;;;;;;;33.10;24.07;;;;;;;-0.19;70.24;97127.22;5119642;28;20228;-52
2022/03/09 01:40:34;;;;;;;33.83;25.10;;;;;;;-0.28;69.94;97126.72;5118708;28;20295;-53
2022/03/09 01:43:01;;;;;;;33.77;24.77;;;;;;;-0.24;70.58;97131.75;5116088;28;20200;-52
2022/03/09 01:45:29;;;;;;;30.90;24.20;;;;;;;-0.27;70.69;97124.09;5116051;28;20209;-53
2022/03/09 01:47:55;;;;;;;36.23;24.97;;;;;;;-0.36;71.14;97127.09;5115883;28;20215;-52
2022/03/09 01:50:22;;;;;;;35.60;25.57;;;;;;;-0.41;71.13;97131.63;5116012;28;20213;-53
2022/03/09 01:52:48;;;;;;;33.60;25.00;;;;;;;-0.53;72.66;97132.13;5115855;28;20639;-54
2022/03/09 01:55:14;;;;;;;32.30;24.27;;;;;;;-0.51;72.50;97138.13;5115923;28;20214;-53
2022/03/09 01:57:41;;;;;;;33.37;25.00;;;;;;;-0.51;72.24;97140.72;5115421;28;20665;-52
2022/03/09 02:00:10;;;;;;;30.80;25.00;;;;;;;-0.52;71.57;97146.81;5116140;28;20201;-52
2022/03/09 02:02:37;;;;;;;31.33;24.40;;;;;;;-0.51;71.34;97141.56;5115545;28;20321;-52
2022/03/09 02:05:05;;;;;;;33.47;25.27;;;;;;;-0.57;70.99;97141.78;5102203;28;20216;-53
2022/03/09 02:10:18;;;;;;;32.87;25.47;;;;;;;-0.65;71.49;97135.25;5115508;28;20205;-53
2022/03/09 02:12:45;;;;;;;37.60;25.17;;;;;;;-0.69;71.52;97131.09;5115130;28;20218;-54
2022/03/09 02:15:11;;;;;;;37.03;25.30;;;;;;;-0.71;71.44;97132.91;5115376;28;20201;-53
2022/03/09 02:17:39;;;;;;;34.00;25.13;;;;;;;-0.66;70.89;97120.56;5115073;28;20218;-54
2022/03/09 02:20:07;;;;;;;36.60;25.57;;;;;;;-0.66;71.43;97125.75;5115499;28;20209;-54
2022/03/09 02:22:37;;;;;;;35.23;25.37;;;;;;;-0.67;72.30;97122.31;5115184;28;20236;-52
2022/03/09 02:25:05;;;;;;;35.47;25.87;;;;;;;-0.63;71.91;97128.22;5115578;28;20206;-52
2022/03/09 02:27:32;;;;;;;35.03;25.37;;;;;;;-0.67;72.79;97129.25;5115065;28;20205;-52
2022/03/09 02:29:58;;;;;;;35.00;25.73;;;;;;;-0.65;72.28;97132.66;5115268;28;20650;-53
2022/03/09 02:32:25;;;;;;;36.53;26.53;;;;;;;-0.65;72.42;97132.66;5118331;28;20208;-52
2022/03/09 02:34:52;;;;;;;34.70;24.90;;;;;;;-0.63;72.72;97146.41;5130381;28;20193;-53
2022/03/09 02:37:18;;;;;;;32.43;24.23;;;;;;;-0.61;72.71;97144.59;5131946;28;20224;-53
2022/03/09 02:39:47;;;;;;;33.83;25.53;;;;;;;-0.58;72.02;97145.31;5126307;28;20211;-52
2022/03/09 02:42:14;;;;;;;36.30;26.00;;;;;;;-0.62;73.24;97145.50;5114847;27;20213;-52
2022/03/09 02:44:41;;;;;;;36.07;25.43;;;;;;;-0.65;73.52;97148.22;5115306;28;20221;-52
2022/03/09 02:47:07;;;;;;;31.53;24.50;;;;;;;-0.58;72.68;97150.53;5114726;28;20306;-53
2022/03/09 02:49:34;;;;;;;35.47;25.80;;;;;;;-0.56;73.07;97150.44;5115035;28;20208;-53
2022/03/09 02:52:00;;;;;;;34.17;25.90;;;;;;;-0.55;72.61;97152.97;5114636;28;20236;-53
2022/03/09 02:54:27;;;;;;;32.70;25.23;;;;;;;-0.54;72.31;97146.91;5114841;28;20205;-53
2022/03/09 02:56:55;;;;;;;37.20;26.10;;;;;;;-0.70;73.06;97153.59;5114872;28;20201;-52
2022/03/09 02:59:21;;;;;;;34.57;25.87;;;;;;;-0.73;73.00;97150.28;5115114;28;20288;-52
2022/03/09 03:01:48;;;;;;;32.33;23.87;;;;;;;-0.84;72.35;97144.69;5114999;28;20240;-53
2022/03/09 03:04:14;;;;;;;34.17;25.57;;;;;;;-0.79;73.25;97145.34;5114152;28;20200;-52
2022/03/09 03:06:41;;;;;;;33.57;25.63;;;;;;;-0.83;73.12;97142.03;5114670;28;20208;-53
2022/03/09 03:09:08;;;;;;;34.07;24.83;;;;;;;-0.88;72.87;97145.69;5114248;28;20605;-53
2022/03/09 03:11:35;;;;;;;33.27;24.63;;;;;;;-0.90;72.59;97143.19;5114983;28;20231;-52
2022/03/09 03:14:02;;;;;;;29.93;23.17;;;;;;;-0.96;73.55;97148.63;5115044;28;20203;-52
2022/03/09 03:16:29;;;;;;;33.27;24.13;;;;;;;-1.01;73.34;97146.22;5114973;28;20535;-52
2022/03/09 03:18:55;;;;;;;35.57;25.30;;;;;;;-0.96;72.14;97152.97;5115192;28;20272;-52
2022/03/09 03:21:22;;;;;;;35.33;24.40;;;;;;;-0.99;72.35;97158.28;5115108;28;20544;-53
2022/03/09 03:23:48;;;;;;;34.63;24.73;;;;;;;-1.08;72.77;97157.75;5114869;28;20212;-54
2022/03/09 03:26:15;;;;;;;32.17;24.40;;;;;;;-1.09;71.98;97156.03;5114793;28;20209;-52
2022/03/09 03:28:41;;;;;;;32.30;24.60;;;;;;;-1.10;73.01;97156.13;5114757;28;20228;-54
2022/03/09 03:31:09;;;;;;;37.77;26.30;;;;;;;-1.16;73.73;97157.19;5114805;28;20225;-53
2022/03/09 03:33:36;;;;;;;34.43;25.10;;;;;;;-1.11;73.27;97160.47;5114508;28;20208;-52
2022/03/09 03:36:02;;;;;;;34.27;25.40;;;;;;;-1.10;73.26;97156.94;5114703;28;20212;-52
2022/03/09 03:38:29;;;;;;;36.13;26.13;;;;;;;-1.13;73.61;97159.66;5113861;28;20236;-53
2022/03/09 03:40:55;;;;;;;35.03;25.63;;;;;;;-1.16;72.71;97161.53;5114692;28;20203;-52
2022/03/09 03:43:22;;;;;;;34.97;25.57;;;;;;;-1.26;73.57;97166.22;5114923;28;20209;-52
2022/03/09 03:45:48;;;;;;;36.57;26.47;;;;;;;-1.22;73.84;97172.16;5114328;28;20228;-54
2022/03/09 03:48:16;;;;;;;35.10;26.60;;;;;;;-1.19;73.60;97174.63;5114377;28;20213;-52
2022/03/09 03:50:42;;;;;;;33.17;25.10;;;;;;;-1.22;74.26;97165.22;5117650;28;20204;-53
2022/03/09 03:53:09;;;;;;;34.33;25.93;;;;;;;-1.15;73.51;97166.66;5118082;28;20200;-53
2022/03/09 03:55:36;;;;;;;35.23;25.97;;;;;;;-1.20;73.77;97167.72;5117801;28;20205;-53
2022/03/09 03:58:02;;;;;;;38.47;25.97;;;;;;;-1.22;74.84;97167.81;5118407;28;20228;-52
2022/03/09 04:00:29;;;;;;;35.47;26.83;;;;;;;-1.19;74.39;97167.69;5117787;28;20209;-52
2022/03/09 04:02:55;;;;;;;34.50;25.63;;;;;;;-1.19;74.12;97161.66;5117173;28;20254;-53
2022/03/09 04:05:23;;;;;;;38.63;27.87;;;;;;;-1.15;74.34;97164.06;5114409;28;20203;-53
2022/03/09 04:07:50;;;;;;;38.27;27.13;;;;;;;-1.21;75.49;97166.91;5117673;28;20636;-53
2022/03/09 04:10:16;;;;;;;36.00;27.23;;;;;;;-1.19;75.90;97166.84;5117723;28;20213;-53
2022/03/09 04:12:43;;;;;;;37.07;27.47;;;;;;;-1.18;75.63;97158.16;5118194;28;20205;-51
2022/03/09 04:15:10;;;;;;;40.23;28.60;;;;;;;-1.15;75.41;97166.66;5118080;28;20310;-54
2022/03/09 04:17:43;;;;;;;36.87;27.37;;;;;;;-1.14;75.28;97160.59;5117487;28;20204;-52
2022/03/09 04:20:11;;;;;;;37.43;27.20;;;;;;;-1.17;75.46;97165.03;5118017;28;20197;-53
2022/03/09 04:22:39;;;;;;;34.37;25.73;;;;;;;-1.15;75.73;97168.41;5118018;28;20207;-53
2022/03/09 04:25:08;;;;;;;38.93;27.80;;;;;;;-1.10;75.12;97167.31;5117618;28;20209;-53
2022/03/09 04:27:34;;;;;;;36.87;26.37;;;;;;;-1.06;75.48;97168.91;5117750;28;20227;-54
2022/03/09 04:30:01;;;;;;;37.70;27.60;;;;;;;-1.07;74.80;97177.59;5117626;28;20218;-52
2022/03/09 04:32:27;;;;;;;35.27;26.43;;;;;;;-1.16;74.71;97180.53;5116813;28;20211;-53
2022/03/09 04:34:54;;;;;;;36.17;27.30;;;;;;;-1.27;76.44;97177.50;5116949;28;20201;-53
2022/03/09 04:37:21;;;;;;;36.93;27.37;;;;;;;-1.22;75.62;97177.34;5117382;28;20215;-53
2022/03/09 04:39:49;;;;;;;41.83;27.20;;;;;;;-1.19;75.63;97179.81;5116861;28;20227;-52
2022/03/09 04:42:16;;;;;;;35.30;27.60;;;;;;;-1.19;75.25;97177.22;5117347;28;20222;-52
2022/03/09 04:44:42;;;;;;;37.50;27.53;;;;;;;-1.29;75.67;97181.06;5117406;28;20278;-52
2022/03/09 04:47:09;;;;;;;36.93;26.67;;;;;;;-1.38;76.54;97171.88;5117137;28;20200;-53
2022/03/09 04:49:36;;;;;;;40.87;28.20;;;;;;;-1.36;75.62;97177.88;5117011;28;20203;-53
2022/03/09 04:52:02;;;;;;;34.03;26.00;;;;;;;-1.36;75.28;97179.59;5103858;28;20210;-52
2022/03/09 04:54:29;;;;;;;38.97;27.03;;;;;;;-1.44;75.60;97169.53;5117815;28;20216;-53
2022/03/09 04:56:56;;;;;;;41.43;27.43;;;;;;;-1.41;75.01;97177.19;5127950;28;20212;-53
2022/03/09 04:59:23;;;;;;;33.57;25.33;;;;;;;-1.41;75.38;97172.00;5132677;28;20225;-58
2022/03/09 05:01:49;;;;;;;34.67;25.70;;;;;;;-1.50;75.58;97182.72;5129015;28;20235;-53
2022/03/09 05:04:16;;;;;;;35.83;25.90;;;;;;;-1.46;75.58;97173.09;5123477;28;20201;-52
2022/03/09 05:06:42;;;;;;;36.37;25.83;;;;;;;-1.44;75.37;97174.72;5121219;28;20217;-53
2022/03/09 05:09:09;;;;;;;33.13;25.13;;;;;;;-1.47;75.69;97174.81;5122112;28;20207;-52
2022/03/09 05:11:35;;;;;;;34.13;25.77;;;;;;;-1.52;77.45;97174.13;5121953;27;20208;-53
2022/03/09 05:14:03;;;;;;;36.30;25.77;;;;;;;-1.59;77.03;97175.25;5127431;28;20219;-53
2022/03/09 05:16:30;;;;;;;35.53;26.23;;;;;;;-1.52;76.19;97174.13;5128975;27;20211;-52
2022/03/09 05:18:56;;;;;;;37.70;25.07;;;;;;;-1.44;76.17;97184.22;5129148;28;20758;-53
2022/03/09 05:21:23;;;;;;;35.60;26.23;;;;;;;-1.51;76.99;97181.03;5129582;28;20204;-54
2022/03/09 05:23:50;;;;;;;34.87;25.00;;;;;;;-1.50;77.07;97182.72;5116783;28;20213;-54
2022/03/09 05:26:17;;;;;;;35.90;25.73;;;;;;;-1.50;76.14;97182.72;5116799;28;20209;-52
2022/03/09 05:28:44;;;;;;;37.83;27.53;;;;;;;-1.51;76.28;97191.41;5116695;28;20212;-52
2022/03/09 05:31:12;;;;;;;36.23;26.30;;;;;;;-1.52;76.81;97190.53;5116843;28;20212;-52
2022/03/09 05:33:39;;;;;;;37.10;26.27;;;;;;;-1.51;76.82;97194.00;5116432;27;20207;-53
2022/03/09 05:36:05;;;;;;;36.60;26.50;;;;;;;-1.60;76.85;97192.59;5116570;28;20541;-54
2022/03/09 05:38:32;;;;;;;36.27;25.53;;;;;;;-1.58;77.63;97193.38;5116387;28;20231;-52
2022/03/09 05:40:58;;;;;;;37.67;28.10;;;;;;;-1.65;77.26;97199.69;5116427;28;20213;-52
2022/03/09 05:43:25;;;;;;;39.20;27.67;;;;;;;-1.63;77.72;97197.06;5116150;28;20223;-54
2022/03/09 05:45:51;;;;;;;35.47;26.50;;;;;;;-1.61;78.05;97201.28;5116751;27;20216;-53
2022/03/09 05:48:19;;;;;;;38.50;27.03;;;;;;;-1.57;77.76;97189.88;5114131;28;20203;-51
2022/03/09 05:50:46;;;;;;;37.80;26.53;;;;;;;-1.59;77.69;97193.41;5111817;28;20612;-53
2022/03/09 05:53:12;;;;;;;36.77;26.77;;;;;;;-1.61;79.28;97201.28;5117358;28;20599;-53
2022/03/09 05:55:41;;;;;;;39.17;27.67;;;;;;;-1.53;78.54;97199.25;5120742;28;20524;-53
2022/03/09 05:58:08;;;;;;;40.90;28.10;;;;;;;-1.59;77.87;97203.78;5118461;28;20211;-52
2022/03/09 06:00:35;;;;;;;39.10;26.27;;;;;;;-1.57;78.34;97207.19;5112872;28;20206;-51
2022/03/09 06:03:02;;;;;;;37.40;27.97;;;;;;;-1.49;77.74;97210.38;5112274;28;20281;-53
2022/03/09 06:05:29;;;;;;;37.27;26.67;;;;;;;-1.42;77.79;97217.00;5112535;28;20193;-53
2022/03/09 06:07:56;;;;;;;38.53;26.83;;;;;;;-1.40;77.27;97217.78;5112087;28;20208;-52
2022/03/09 06:10:22;;;;;;;39.40;27.67;;;;;;;-1.22;76.89;97217.09;5115267;28;20202;-53
2022/03/09 06:12:50;;;;;;;40.83;26.87;;;;;;;-0.89;76.70;97221.91;5117754;28;20204;-52
2022/03/09 06:15:17;;;;;;;37.37;27.37;;;;;;;-0.61;73.97;97232.91;5118247;28;20204;-52
2022/03/09 06:17:46;;;;;;;37.83;28.30;;;;;;;-0.72;73.79;97228.16;5117726;28;20279;-53
2022/03/09 06:20:13;;;;;;;34.57;26.07;;;;;;;-0.70;74.04;97225.47;5116893;28;20335;-53
2022/03/09 06:22:41;;;;;;;38.77;26.47;;;;;;;-0.46;72.72;97232.28;5112550;27;20231;-54
2022/03/09 06:25:09;;;;;;;35.83;26.30;;;;;;;-0.03;73.24;97232.22;5110672;28;20201;-52
2022/03/09 06:27:42;;;;;;;38.70;28.13;;;;;;;0.56;70.70;97231.41;5115611;28;20219;-53
2022/03/09 06:30:10;;;;;;;35.17;26.40;;;;;;;0.89;69.45;97234.22;5114604;28;20217;-51
2022/03/09 06:32:36;;;;;;;39.07;26.63;;;;;;;1.12;67.80;97233.19;5113276;28;20208;-52
2022/03/09 06:35:03;;;;;;;37.90;27.17;;;;;;;1.03;67.46;97231.00;5112643;28;20204;-52
2022/03/09 06:37:30;;;;;;;35.87;26.90;;;;;;;1.15;68.04;97238.25;5111586;28;20216;-51
2022/03/09 06:39:58;;;;;;;35.43;25.90;;;;;;;1.50;66.56;97237.44;5112660;27;20244;-51
2022/03/09 06:42:25;;;;;;;35.00;26.50;;;;;;;1.52;66.16;97236.41;5113140;28;20194;-52
2022/03/09 06:44:52;;;;;;;39.03;27.73;;;;;;;1.21;67.99;97235.34;5112010;28;20655;-51
2022/03/09 06:47:18;;;;;;;33.53;27.03;;;;;;;1.02;67.98;97239.72;5111539;28;20856;-52
2022/03/09 06:49:46;;;;;;;34.13;27.07;;;;;;;1.29;68.12;97235.84;5111711;28;20694;-52
2022/03/09 06:52:12;;;;;;;36.07;27.57;;;;;;;1.31;68.18;97236.63;5111615;28;20541;-54
2022/03/09 06:54:39;;;;;;;36.67;28.50;;;;;;;1.76;66.21;97241.38;5112032;28;20536;-54
2022/03/09 06:57:07;;;;;;;32.53;26.40;;;;;;;1.76;66.22;97233.56;5110988;28;20208;-52
2022/03/09 06:59:33;;;;;;;35.63;28.13;;;;;;;1.58;65.57;97224.88;5110489;28;20634;-53
2022/03/09 07:01:59;;;;;;;38.70;29.40;;;;;;;1.14;68.04;97239.16;5111625;28;20232;-54
2022/03/09 07:04:26;;;;;;;35.07;27.43;;;;;;;1.35;67.41;97233.78;5111551;28;21280;-52
2022/03/09 07:06:52;;;;;;;38.37;28.47;;;;;;;1.35;67.18;97238.16;5111164;28;20213;-53
2022/03/09 07:09:19;;;;;;;41.20;28.23;;;;;;;1.08;68.38;97239.44;5111701;28;20191;-54
2022/03/09 07:11:45;;;;;;;39.73;27.77;;;;;;;1.09;67.35;97235.94;5111602;28;20235;-55
2022/03/09 07:14:13;;;;;;;38.37;28.17;;;;;;;1.09;66.86;97249.81;5110363;28;20200;-54
2022/03/09 07:16:40;;;;;;;38.10;28.13;;;;;;;1.08;66.66;97245.50;5111379;28;20199;-54
2022/03/09 07:19:06;;;;;;;37.67;28.20;;;;;;;1.15;66.25;97248.66;5111334;28;20231;-55
2022/03/09 07:21:33;;;;;;;36.90;28.00;;;;;;;1.05;67.43;97255.22;5115023;28;20203;-54
2022/03/09 07:23:59;;;;;;;34.50;26.83;;;;;;;1.14;65.33;97260.00;5117356;28;20239;-56
2022/03/09 07:26:28;;;;;;;38.53;28.30;;;;;;;1.05;65.78;97266.47;5138563;28;20194;-57
2022/03/09 07:28:54;;;;;;;38.30;27.77;;;;;;;1.16;65.08;97266.00;5137633;28;20194;-53
2022/03/09 07:31:22;;;;;;;38.70;28.40;;;;;;;1.14;64.81;97254.78;5135593;28;20218;-52
2022/03/09 07:33:49;;;;;;;36.53;27.17;;;;;;;1.35;64.42;97267.66;5115774;28;20210;-54
2022/03/09 07:36:15;;;;;;;36.97;28.13;;;;;;;1.22;64.83;97274.38;5115331;28;20216;-54
2022/03/09 07:38:42;;;;;;;38.80;28.80;;;;;;;1.25;65.11;97270.75;5115674;28;20401;-53
2022/03/09 07:41:09;;;;;;;37.57;27.53;;;;;;;1.29;66.18;97275.75;5115166;28;20198;-53
2022/03/09 07:43:38;;;;;;;39.63;28.43;;;;;;;1.54;65.21;97275.47;5115531;28;20296;-54
2022/03/09 07:46:04;;;;;;;35.30;26.07;;;;;;;1.65;64.45;97277.56;5113833;28;20211;-53
2022/03/09 07:48:32;;;;;;;36.27;27.63;;;;;;;1.77;63.43;97287.41;5115378;28;20213;-54
2022/03/09 07:50:59;;;;;;;36.37;28.23;;;;;;;1.65;64.19;97286.22;5115068;28;20206;-53
2022/03/09 07:53:25;;;;;;;37.07;26.70;;;;;;;1.63;64.42;97292.44;5114902;28;20203;-53
2022/03/09 07:55:52;;;;;;;41.23;28.30;;;;;;;1.85;64.42;97296.53;5114825;28;20204;-53
2022/03/09 07:58:20;;;;;;;37.67;27.10;;;;;;;2.00;63.56;97287.13;5114453;28;20630;-52
2022/03/09 08:00:46;;;;;;;37.03;27.13;;;;;;;2.08;62.50;97295.44;5114644;28;20543;-53
2022/03/09 08:03:13;;;;;;;37.10;27.90;;;;;;;2.07;62.24;97291.13;5114359;28;20241;-53
2022/03/09 08:05:43;;;;;;;39.00;28.17;;;;;;;2.20;63.65;97293.94;5114491;28;20200;-52
2022/03/09 08:08:09;;;;;;;35.83;26.80;;;;;;;2.29;62.44;97288.28;5137158;28;20190;-52
2022/03/09 08:10:36;;;;;;;35.23;27.40;;;;;;;2.34;62.05;97288.88;5139463;28;20179;-53
2022/03/09 08:13:02;;;;;;;36.37;28.20;;;;;;;2.44;62.85;97290.13;5121086;28;20208;-54
2022/03/09 08:15:28;;;;;;;40.13;28.87;;;;;;;2.49;62.75;97283.75;5113109;28;20205;-53
2022/03/09 08:17:55;;;;;;;34.73;27.80;;;;;;;2.61;63.57;97287.50;5114969;28;20197;-54
2022/03/09 08:20:22;;;;;;;37.67;28.77;;;;;;;2.73;62.43;97297.31;5114534;28;20224;-54
2022/03/09 08:22:50;;;;;;;34.53;28.17;;;;;;;2.90;62.20;97293.84;5114600;28;20212;-52
2022/03/09 08:25:16;;;;;;;36.27;29.00;;;;;;;2.96;62.26;97293.50;5114188;28;20218;-55
2022/03/09 08:27:42;;;;;;;42.20;31.47;;;;;;;3.07;61.35;97285.09;5113791;28;20219;-53
2022/03/09 08:30:11;;;;;;;40.17;29.60;;;;;;;3.27;61.94;97292.69;5113046;28;20192;-53
2022/03/09 08:32:37;;;;;;;41.20;31.87;;;;;;;3.31;61.77;97286.38;5113834;28;20204;-53
2022/03/09 08:35:05;;;;;;;43.13;31.13;;;;;;;3.26;61.26;97293.66;5114149;28;20208;-54
2022/03/09 08:37:31;;;;;;;40.43;29.63;;;;;;;3.49;62.18;97293.22;5115598;28;20201;-53
2022/03/09 08:39:59;;;;;;;38.27;30.70;;;;;;;3.53;62.23;97289.53;5117072;28;20217;-54
2022/03/09 08:42:25;;;;;;;39.80;30.83;;;;;;;3.59;61.91;97283.94;5132697;28;20204;-54
2022/03/09 08:44:52;;;;;;;41.43;31.93;;;;;;;3.59;60.61;97291.78;5136849;28;20185;-53
2022/03/09 08:47:18;;;;;;;41.47;31.77;;;;;;;3.76;61.05;97294.31;5136644;28;20198;-53
2022/03/09 08:49:45;;;;;;;39.63;30.27;;;;;;;3.83;59.92;97295.66;5136343;28;20219;-53
2022/03/09 08:52:13;;;;;;;39.10;30.57;;;;;;;3.93;61.20;97290.78;5131680;27;20207;-53
2022/03/09 08:54:41;;;;;;;37.53;29.97;;;;;;;4.11;60.29;97288.88;5114301;28;20232;-53
2022/03/09 08:57:09;;;;;;;35.80;28.37;;;;;;;4.12;59.05;97288.78;5136524;28;20201;-54
2022/03/09 08:59:38;;;;;;;37.97;30.03;;;;;;;4.06;58.50;97283.91;5137492;28;20272;-54
2022/03/09 09:02:04;;;;;;;38.73;28.70;;;;;;;4.24;58.46;97284.63;5123901;28;20225;-53
2022/03/09 09:04:33;;;;;;;37.50;28.23;;;;;;;4.37;57.89;97290.81;5113174;28;20197;-53
2022/03/09 09:06:59;;;;;;;38.27;30.20;;;;;;;4.60;57.94;97279.84;5114126;28;20629;-53
2022/03/09 09:09:27;;;;;;;39.83;29.13;;;;;;;4.69;57.11;97289.78;5112370;28;20200;-54
2022/03/09 09:11:54;;;;;;;36.97;29.13;;;;;;;4.79;56.97;97285.66;5112816;28;20205;-54
2022/03/09 09:14:23;;;;;;;47.20;28.67;;;;;;;5.06;56.17;97287.56;5113501;28;20224;-54
2022/03/09 09:16:49;;;;;;;34.03;26.73;;;;;;;5.15;54.39;97292.22;5112909;28;20197;-54
2022/03/09 09:19:17;;;;;;;38.77;28.87;;;;;;;5.37;53.83;97289.97;5115552;28;20220;-53
2022/03/09 09:21:44;;;;;;;35.27;27.13;;;;;;;5.74;53.00;97291.97;5138165;28;20187;-53
2022/03/09 09:24:11;;;;;;;34.30;26.70;;;;;;;6.07;51.60;97283.72;5139141;28;20193;-53
2022/03/09 09:26:37;;;;;;;31.67;25.40;;;;;;;6.26;49.82;97278.13;5117292;28;20197;-53
2022/03/09 09:29:04;;;;;;;37.03;25.53;;;;;;;6.47;49.29;97277.56;5113331;28;20201;-55
2022/03/09 09:31:33;;;;;;;33.47;25.67;;;;;;;6.88;48.03;97274.75;5112725;28;20308;-54
2022/03/09 09:33:59;;;;;;;32.37;25.70;;;;;;;7.18;47.51;97277.06;5113119;28;20209;-53
2022/03/09 09:36:26;;;;;;;33.73;25.83;;;;;;;7.61;47.03;97269.59;5112923;28;20216;-53
2022/03/09 09:38:54;;;;;;;31.60;24.63;;;;;;;7.93;45.92;97273.41;5113348;28;20210;-53
2022/03/09 09:41:24;;;;;;;33.33;25.20;;;;;;;8.23;44.72;97264.19;5113081;28;20220;-53
2022/03/09 09:43:51;;;;;;;28.13;23.27;;;;;;;8.64;43.59;97251.44;5116500;28;20233;-53
2022/03/09 09:46:17;;;;;;;30.77;25.57;;;;;;;8.83;44.56;97253.50;5130438;28;20201;-55
2022/03/09 09:48:46;;;;;;;29.80;24.57;;;;;;;8.90;42.15;97254.69;5129619;28;20193;-55
2022/03/09 09:51:13;;;;;;;28.57;23.87;;;;;;;9.38;41.15;97252.69;5125422;28;20265;-53
2022/03/09 09:53:43;;;;;;;29.97;23.03;;;;;;;9.75;40.64;97253.22;5131332;28;20216;-56
2022/03/09 09:56:10;;;;;;;27.47;23.30;;;;;;;9.99;39.54;97251.25;5135220;28;20197;-53
2022/03/09 09:58:37;;;;;;;26.17;22.23;;;;;;;10.07;38.15;97248.00;5118286;28;20283;-53
2022/03/09 10:01:06;;;;;;;27.03;22.80;;;;;;;10.77;37.47;97249.13;5111331;28;20553;-54
2022/03/09 10:03:32;;;;;;;25.30;20.33;;;;;;;11.44;36.48;97246.03;5112071;28;20212;-53
2022/03/09 10:06:00;;;;;;;25.63;21.93;;;;;;;11.86;37.02;97239.63;5110539;28;20224;-53
2022/03/09 10:08:26;;;;;;;29.60;23.80;;;;;;;11.71;36.38;97238.31;5111393;28;20208;-55
2022/03/09 10:10:57;;;;;;;27.37;23.83;;;;;;;11.55;36.67;97245.09;5111894;28;20215;-54
2022/03/09 10:13:26;;;;;;;30.70;25.77;;;;;;;11.51;37.00;97244.50;5112357;28;20202;-54
2022/03/09 10:16:09;;;;;;;32.10;25.57;;;;;;;11.64;36.81;97239.81;5111421;28;20228;-54
2022/03/09 10:18:37;;;;;;;31.83;25.63;;;;;;;11.63;36.28;97240.78;5114265;28;20189;-54
2022/03/09 10:21:12;;;;;;;27.37;24.10;;;;;;;12.57;36.01;97228.78;5116378;28;20516;-54
2022/03/09 10:23:52;;;;;;;32.07;23.70;;;;;;;12.62;34.85;97237.13;5117689;28;20506;-54
2022/03/09 10:26:20;;;;;;;29.17;24.30;;;;;;;12.52;35.16;97237.16;5111733;28;20197;-53
2022/03/09 10:28:58;;;;;;;27.40;24.40;;;;;;;12.61;34.65;97233.66;5112357;28;20201;-54
2022/03/09 10:31:32;;;;;;;29.13;23.53;;;;;;;12.76;33.66;97234.03;5112247;28;20288;-55
2022/03/09 10:34:06;;;;;;;28.03;24.00;;;;;;;12.79;34.12;97233.75;5111963;28;20247;-54
2022/03/09 10:36:34;;;;;;;30.77;23.00;;;;;;;12.84;33.82;97221.75;5112152;28;20193;-53
2022/03/09 10:39:14;;;;;;;31.27;24.17;;;;;;;12.81;33.98;97227.34;5111126;28;20666;-53
2022/03/09 10:41:40;;;;;;;32.60;24.63;;;;;;;12.75;33.85;97222.59;5111607;28;20275;-54
2022/03/09 10:44:07;;;;;;;31.17;24.40;;;;;;;12.74;32.78;97212.97;5112328;28;20201;-54
2022/03/09 10:46:42;;;;;;;31.83;23.30;;;;;;;13.05;33.44;97210.94;5111956;28;20219;-55
2022/03/09 10:49:11;;;;;;;30.73;24.03;;;;;;;13.53;33.83;97216.09;5111794;28;20207;-54
2022/03/09 10:51:41;;;;;;;32.67;24.03;;;;;;;13.67;32.33;97207.66;5111069;28;20201;-54
2022/03/09 10:54:09;;;;;;;28.20;24.67;;;;;;;13.76;32.66;97204.09;5110146;28;20208;-54
2022/03/09 10:56:37;;;;;;;27.57;24.57;;;;;;;13.67;31.76;97198.84;5111817;28;20660;-54
2022/03/09 10:59:16;;;;;;;27.93;23.93;;;;;;;13.80;31.23;97200.13;5112816;28;20232;-54
2022/03/09 11:01:43;;;;;;;30.70;25.53;;;;;;;14.12;32.84;97193.47;5115750;28;20231;-54
2022/03/09 11:04:12;;;;;;;25.50;22.73;;;;;;;14.37;32.17;97193.59;5115893;28;20606;-54
2022/03/09 11:06:42;;;;;;;26.10;23.40;;;;;;;15.05;31.92;97198.25;5115921;28;20235;-55
2022/03/09 11:09:10;;;;;;;30.43;24.43;;;;;;;14.99;31.50;97186.38;5115396;28;20208;-54
2022/03/09 11:11:38;;;;;;;29.07;25.37;;;;;;;15.02;31.23;97179.94;5115554;28;20216;-55
2022/03/09 11:14:05;;;;;;;26.75;23.85;;;;;;;15.41;31.25;97189.13;5116275;28;20197;-55
2022/03/09 11:16:31;;;;;;;29.53;24.80;;;;;;;15.52;30.89;97174.72;5116113;28;20543;-53
2022/03/09 11:18:58;;;;;;;26.98;23.83;;;;;;;16.22;30.28;97176.91;5123446;28;20272;-54
2022/03/09 11:21:25;;;;;;;27.38;24.08;;;;;;;16.58;29.14;97171.28;5129964;28;20220;-54